Time,TemperatureF,DewpointF,PressureIn,WindDirection,WindDirectionDegrees,WindSpeedMPH,WindSpeedGustMPH,Humidity,HourlyPrecipIn,Conditions,Clouds,dailyrainin,SoftwareType,DateUTC
2013-03-07 00:01:00,19.0,10.0,-100.00,SW,225,5.0,7.0,70,0.00,,,0.00,,2013-03-07 00:01:00,
2013-03-07 00:11:00,19.0,10.0,-100.00,SSW,205,4.0,6.0,72,0.00,,,0.00,,2013-03-07 00:11:00,
2013-03-07 00:21:00,18.0,10.0,-100.00,SSW,205,4.0,6.0,74,0.00,,,0.00,,2013-03-07 00:21:00,
2013-03-07 00:32:00,17.0,10.0,-100.00,SW,220,4.0,4.0,75,0.00,,,0.00,,2013-03-07 00:32:00,
2013-03-07 00:41:00,16.0,10.0,-100.00,SW,230,3.0,4.0,75,0.00,,,0.00,,2013-03-07 00:41:00,
2013-03-07 00:51:00,15.0,9.0,-100.00,SW,215,1.0,4.0,76,0.00,,,0.00,,2013-03-07 00:51:00,
2013-03-07 01:01:00,15.0,9.0,-100.00,SW,215,0.0,1.0,76,0.00,,,0.00,,2013-03-07 01:01:00,
2013-03-07 01:11:00,15.0,9.0,-100.00,South,170,1.0,2.0,77,0.00,,,0.00,,2013-03-07 01:11:00,
2013-03-07 01:21:00,15.0,10.0,-100.00,SSW,195,3.0,3.0,78,0.00,,,0.00,,2013-03-07 01:21:00,
2013-03-07 01:31:00,15.0,10.0,-100.00,SSW,205,2.0,3.0,80,0.00,,,0.00,,2013-03-07 01:31:00,
2013-03-07 01:41:00,14.0,9.0,-100.00,SSW,210,2.0,3.0,81,0.00,,,0.00,,2013-03-07 01:41:00,
2013-03-07 01:51:00,13.0,9.0,-100.00,SSW,205,2.0,3.0,82,0.00,,,0.00,,2013-03-07 01:51:00,
2013-03-07 02:01:00,12.0,9.0,-100.00,South,190,2.0,3.0,83,0.00,,,0.00,,2013-03-07 02:01:00,
2013-03-07 02:11:00,12.0,7.0,-100.00,South,185,1.0,3.0,83,0.00,,,0.00,,2013-03-07 02:11:00,
2013-03-07 02:21:00,11.0,7.0,-100.00,South,190,0.0,2.0,84,0.00,,,0.00,,2013-03-07 02:21:00,
2013-03-07 02:32:00,13.0,10.0,-100.00,East,100,1.0,2.0,85,0.00,,,0.00,,2013-03-07 02:32:00,
2013-03-07 02:41:00,13.0,10.0,-100.00,East,100,1.0,2.0,85,0.00,,,0.00,,2013-03-07 02:41:00,
2013-03-07 02:51:00,13.0,10.0,-100.00,East,100,1.0,2.0,85,0.00,,,0.00,,2013-03-07 02:51:00,
2013-03-07 03:02:00,14.0,10.0,-100.00,East,95,1.0,3.0,87,0.00,,,0.00,,2013-03-07 03:02:00,
2013-03-07 03:11:00,13.0,10.0,-100.00,NNE,20,0.0,2.0,87,0.00,,,0.00,,2013-03-07 03:11:00,
2013-03-07 03:21:00,11.0,9.0,-100.00,NNE,20,1.0,2.0,87,0.00,,,0.00,,2013-03-07 03:21:00,
2013-03-07 03:32:00,11.0,9.0,-100.00,NE,50,2.0,3.0,88,0.00,,,0.00,,2013-03-07 03:32:00,
2013-03-07 03:42:00,10.0,7.0,-100.00,North,350,0.0,2.0,88,0.00,,,0.00,,2013-03-07 03:42:00,
2013-03-07 03:52:00,9.0,7.0,-100.00,NNE,25,2.0,2.0,89,0.00,,,0.00,,2013-03-07 03:52:00,
2013-03-07 04:01:00,9.0,7.0,-100.00,NNE,30,2.0,3.0,89,0.00,,,0.00,,2013-03-07 04:01:00,
2013-03-07 04:11:00,9.0,7.0,-100.00,NNE,20,1.0,3.0,90,0.00,,,0.00,,2013-03-07 04:11:00,
2013-03-07 04:21:00,9.0,7.0,-100.00,WSW,255,0.0,2.0,90,0.00,,,0.00,,2013-03-07 04:21:00,
2013-03-07 04:31:00,8.0,7.0,-100.00,NE,55,0.0,2.0,90,0.00,,,0.00,,2013-03-07 04:31:00,
2013-03-07 04:42:00,7.0,5.0,-100.00,North,5,0.0,2.0,90,0.00,,,0.00,,2013-03-07 04:42:00,
2013-03-07 04:51:00,7.0,5.0,-100.00,NE,40,1.0,1.0,91,0.00,,,0.00,,2013-03-07 04:51:00,
2013-03-07 05:01:00,6.0,5.0,-100.00,NNW,340,0.0,1.0,91,0.00,,,0.00,,2013-03-07 05:01:00,
2013-03-07 05:12:00,5.0,3.0,-100.00,NNW,340,0.0,1.0,91,0.00,,,0.00,,2013-03-07 05:12:00,
2013-03-07 05:22:00,2.0,0.0,-100.00,SW,220,1.0,4.0,91,0.00,,,0.00,,2013-03-07 05:22:00,
2013-03-07 05:32:00,3.0,1.0,-100.00,SW,220,1.0,1.0,91,0.00,,,0.00,,2013-03-07 05:32:00,
2013-03-07 05:42:00,2.0,0.0,-100.00,SW,220,0.0,1.0,91,0.00,,,0.00,,2013-03-07 05:42:00,
2013-03-07 05:52:00,2.0,0.0,-100.00,SW,220,0.0,1.0,91,0.00,,,0.00,,2013-03-07 05:52:00,
2013-03-07 06:01:00,2.0,0.0,-100.00,West,270,0.0,1.0,91,0.00,,,0.00,,2013-03-07 06:01:00,
2013-03-07 06:11:00,4.0,1.0,-100.00,East,90,1.0,2.0,91,0.00,,,0.00,,2013-03-07 06:11:00,
2013-03-07 06:21:00,4.0,1.0,-100.00,East,90,0.0,1.0,91,0.00,,,0.00,,2013-03-07 06:21:00,
2013-03-07 06:31:00,1.0,0.0,-100.00,SSW,200,1.0,1.0,91,0.00,,,0.00,,2013-03-07 06:31:00,
2013-03-07 06:41:00,-1.0,-2.0,-100.00,SSW,200,1.0,1.0,91,0.00,,,0.00,,2013-03-07 06:41:00,
2013-03-07 06:51:00,-1.0,-4.0,-100.00,SSW,200,0.0,1.0,91,0.00,,,0.00,,2013-03-07 06:51:00,
2013-03-07 07:01:00,-1.0,-2.0,-100.00,East,95,2.0,2.0,91,0.00,,,0.00,,2013-03-07 07:01:00,
2013-03-07 07:11:00,1.0,0.0,-100.00,East,85,2.0,2.0,91,0.00,,,0.00,,2013-03-07 07:11:00,
2013-03-07 07:21:00,0.0,-2.0,-100.00,ESE,110,0.0,1.0,91,0.00,,,0.00,,2013-03-07 07:21:00,
2013-03-07 07:32:00,0.0,-2.0,-100.00,ESE,110,0.0,0.0,91,0.00,,,0.00,,2013-03-07 07:32:00,
2013-03-07 07:42:00,-1.0,-2.0,-100.00,SW,225,1.0,1.0,91,0.00,,,0.00,,2013-03-07 07:42:00,
2013-03-07 07:52:00,-1.0,-4.0,-100.00,WSW,240,2.0,2.0,91,0.00,,,0.00,,2013-03-07 07:52:00,
2013-03-07 08:02:00,-1.0,-4.0,-100.00,WSW,240,0.0,1.0,91,0.00,,,0.00,,2013-03-07 08:02:00,
2013-03-07 08:12:00,0.0,-2.0,-100.00,East,90,1.0,1.0,91,0.00,,,0.00,,2013-03-07 08:12:00,
2013-03-07 08:22:00,0.0,-2.0,-100.00,NE,55,0.0,1.0,91,0.00,,,0.00,,2013-03-07 08:22:00,
2013-03-07 08:33:00,0.0,-2.0,-100.00,NE,55,0.0,0.0,91,0.00,,,0.00,,2013-03-07 08:33:00,
2013-03-07 08:43:00,0.0,-2.0,-100.00,NE,55,0.0,0.0,91,0.00,,,0.00,,2013-03-07 08:43:00,
2013-03-07 08:52:00,0.0,-2.0,-100.00,NE,55,0.0,0.0,91,0.00,,,0.00,,2013-03-07 08:52:00,
2013-03-07 09:03:00,0.0,-2.0,-100.00,NNE,30,0.0,1.0,91,0.00,,,0.00,,2013-03-07 09:03:00,
2013-03-07 09:12:00,1.0,0.0,-100.00,NNE,20,0.0,1.0,91,0.00,,,0.00,,2013-03-07 09:12:00,
2013-03-07 09:22:00,1.0,0.0,-100.00,NE,45,1.0,2.0,91,0.00,,,0.00,,2013-03-07 09:22:00,
2013-03-07 09:32:00,1.0,0.0,-100.00,NE,55,2.0,2.0,91,0.00,,,0.00,,2013-03-07 09:32:00,
2013-03-07 09:42:00,2.0,0.0,-100.00,East,80,0.0,1.0,91,0.00,,,0.00,,2013-03-07 09:42:00,
2013-03-07 09:52:00,2.0,0.0,-100.00,North,10,0.0,0.0,91,0.00,,,0.00,,2013-03-07 09:52:00,
2013-03-07 10:02:00,1.0,0.0,-100.00,East,95,1.0,1.0,91,0.00,,,0.00,,2013-03-07 10:02:00,
2013-03-07 10:12:00,1.0,0.0,-100.00,East,90,0.0,1.0,91,0.00,,,0.00,,2013-03-07 10:12:00,
2013-03-07 10:23:00,1.0,0.0,-100.00,SE,125,0.0,2.0,91,0.00,,,0.00,,2013-03-07 10:23:00,
2013-03-07 10:33:00,0.0,-2.0,-100.00,SSW,195,1.0,1.0,91,0.00,,,0.00,,2013-03-07 10:33:00,
2013-03-07 10:42:00,-1.0,-2.0,-100.00,SSW,195,0.0,1.0,91,0.00,,,0.00,,2013-03-07 10:42:00,
2013-03-07 10:52:00,-1.0,-2.0,-100.00,ESE,115,1.0,1.0,91,0.00,,,0.00,,2013-03-07 10:52:00,
2013-03-07 11:02:00,0.0,-2.0,-100.00,ESE,110,1.0,4.0,91,0.00,,,0.00,,2013-03-07 11:02:00,
2013-03-07 11:12:00,1.0,0.0,-100.00,ESE,110,3.0,4.0,91,0.00,,,0.00,,2013-03-07 11:12:00,
2013-03-07 11:23:00,2.0,0.0,-100.00,ESE,110,1.0,4.0,91,0.00,,,0.00,,2013-03-07 11:23:00,
2013-03-07 11:33:00,3.0,1.0,-100.00,ESE,120,3.0,4.0,91,0.00,,,0.00,,2013-03-07 11:33:00,
2013-03-07 11:42:00,3.0,1.0,-100.00,SE,130,2.0,3.0,91,0.00,,,0.00,,2013-03-07 11:42:00,
2013-03-07 11:52:00,4.0,1.0,-100.00,ESE,110,2.0,3.0,91,0.00,,,0.00,,2013-03-07 11:52:00,
2013-03-07 12:02:00,4.0,1.0,-100.00,ESE,115,1.0,3.0,92,0.00,,,0.00,,2013-03-07 12:02:00,
2013-03-07 12:12:00,4.0,1.0,-100.00,SE,145,2.0,4.0,92,0.00,,,0.00,,2013-03-07 12:12:00,
2013-03-07 12:22:00,4.0,3.0,-100.00,ESE,105,4.0,4.0,92,0.00,,,0.00,,2013-03-07 12:22:00,
2013-03-07 12:33:00,5.0,3.0,-100.00,ESE,115,2.0,4.0,92,0.00,,,0.00,,2013-03-07 12:33:00,
2013-03-07 12:52:00,6.0,3.0,-100.00,ESE,120,4.0,7.0,92,0.00,,,0.00,,2013-03-07 12:52:00,
2013-03-07 13:02:00,6.0,3.0,-100.00,ESE,120,4.0,7.0,92,0.00,,,0.00,,2013-03-07 13:02:00,
2013-03-07 13:12:00,6.0,5.0,-100.00,ESE,115,4.0,7.0,92,0.00,,,0.00,,2013-03-07 13:12:00,
2013-03-07 13:22:00,7.0,5.0,-100.00,ESE,115,1.0,7.0,92,0.00,,,0.00,,2013-03-07 13:22:00,
2013-03-07 13:32:00,7.0,5.0,-100.00,SE,135,1.0,2.0,92,0.00,,,0.00,,2013-03-07 13:32:00,
2013-03-07 13:42:00,8.0,7.0,-100.00,SSE,150,2.0,3.0,92,0.00,,,0.00,,2013-03-07 13:42:00,
2013-03-07 13:52:00,8.0,7.0,-100.00,ESE,120,3.0,4.0,92,0.00,,,0.00,,2013-03-07 13:52:00,
2013-03-07 14:01:00,9.0,7.0,-100.00,ESE,105,4.0,5.0,93,0.00,,,0.00,,2013-03-07 14:01:00,
2013-03-07 14:12:00,9.0,9.0,-100.00,ESE,120,4.0,6.0,93,0.00,,,0.00,,2013-03-07 14:12:00,
2013-03-07 14:22:00,10.0,9.0,-100.00,SE,130,2.0,5.0,93,0.00,,,0.00,,2013-03-07 14:22:00,
2013-03-07 14:32:00,10.0,9.0,-100.00,SSE,160,2.0,4.0,93,0.00,,,0.00,,2013-03-07 14:32:00,
2013-03-07 14:42:00,11.0,10.0,-100.00,SE,135,2.0,4.0,93,0.00,,,0.00,,2013-03-07 14:42:00,
2013-03-07 14:52:00,11.0,9.0,-100.00,ESE,120,4.0,6.0,93,0.00,,,0.00,,2013-03-07 14:52:00,
2013-03-07 15:02:00,12.0,10.0,-100.00,ESE,110,3.0,6.0,93,0.00,,,0.00,,2013-03-07 15:02:00,
2013-03-07 15:12:00,13.0,10.0,-100.00,ESE,105,5.0,6.0,93,0.00,,,0.00,,2013-03-07 15:12:00,
2013-03-07 15:22:00,13.0,12.0,-100.00,ESE,115,6.0,9.0,93,0.00,,,0.00,,2013-03-07 15:22:00,
2013-03-07 15:32:00,14.0,12.0,-100.00,ESE,115,6.0,9.0,93,0.00,,,0.00,,2013-03-07 15:32:00,
2013-03-07 15:42:00,15.0,14.0,-100.00,East,95,5.0,8.0,93,0.00,,,0.00,,2013-03-07 15:42:00,
2013-03-07 15:52:00,16.0,14.0,-100.00,ESE,120,7.0,9.0,94,0.00,,,0.00,,2013-03-07 15:52:00,
2013-03-07 16:02:00,17.0,16.0,-100.00,ESE,120,7.0,10.0,94,0.00,,,0.00,,2013-03-07 16:02:00,
2013-03-07 16:12:00,17.0,16.0,-100.00,ESE,120,9.0,12.0,94,0.00,,,0.00,,2013-03-07 16:12:00,
2013-03-07 16:23:00,18.0,18.0,-100.00,SE,125,7.0,13.0,94,0.00,,,0.00,,2013-03-07 16:23:00,
2013-03-07 16:32:00,19.0,18.0,-100.00,SE,125,7.0,12.0,94,0.00,,,0.00,,2013-03-07 16:32:00,
2013-03-07 16:42:00,19.0,18.0,-100.00,ESE,120,8.0,12.0,93,0.00,,,0.00,,2013-03-07 16:42:00,
2013-03-07 16:52:00,19.0,18.0,-100.00,ESE,120,11.0,14.0,91,0.00,,,0.00,,2013-03-07 16:52:00,
2013-03-07 17:02:00,20.0,18.0,-100.00,ESE,115,9.0,14.0,89,0.00,,,0.00,,2013-03-07 17:02:00,
2013-03-07 17:12:00,21.0,18.0,-100.00,SE,130,7.0,13.0,88,0.00,,,0.00,,2013-03-07 17:12:00,
2013-03-07 17:22:00,21.0,18.0,-100.00,SE,140,9.0,16.0,83,0.00,,,0.00,,2013-03-07 17:22:00,
2013-03-07 17:32:00,22.0,18.0,-100.00,SE,140,9.0,14.0,81,0.00,,,0.00,,2013-03-07 17:32:00,
2013-03-07 17:42:00,22.0,18.0,-100.00,SE,135,12.0,17.0,79,0.00,,,0.00,,2013-03-07 17:42:00,
2013-03-07 17:53:00,23.0,18.0,-100.00,SE,135,11.0,17.0,78,0.00,,,0.00,,2013-03-07 17:53:00,
2013-03-07 18:03:00,24.0,18.0,-100.00,SE,130,9.0,16.0,77,0.00,,,0.00,,2013-03-07 18:03:00,
2013-03-07 18:12:00,24.0,18.0,-100.00,SE,125,14.0,21.0,75,0.00,,,0.00,,2013-03-07 18:12:00,
2013-03-07 18:22:00,24.0,18.0,-100.00,SE,135,10.0,17.0,74,0.00,,,0.00,,2013-03-07 18:22:00,
2013-03-07 18:32:00,24.0,18.0,-100.00,SE,140,10.0,17.0,73,0.00,,,0.00,,2013-03-07 18:32:00,
2013-03-07 18:42:00,25.0,18.0,-100.00,SE,140,7.0,19.0,72,0.00,,,0.00,,2013-03-07 18:42:00,
2013-03-07 18:52:00,26.0,18.0,-100.00,SSE,150,9.0,14.0,72,0.00,,,0.00,,2013-03-07 18:52:00,
2013-03-07 19:02:00,26.0,18.0,-100.00,ESE,120,11.0,15.0,71,0.00,,,0.00,,2013-03-07 19:02:00,
2013-03-07 19:12:00,25.0,18.0,-100.00,SE,130,11.0,16.0,70,0.00,,,0.00,,2013-03-07 19:12:00,
2013-03-07 19:23:00,26.0,18.0,-100.00,SE,130,9.0,16.0,70,0.00,,,0.00,,2013-03-07 19:23:00,
2013-03-07 19:34:00,26.0,18.0,-100.00,SE,130,9.0,15.0,70,0.00,,,0.00,,2013-03-07 19:34:00,
2013-03-07 19:43:00,26.0,18.0,-100.00,SE,130,12.0,17.0,69,0.00,,,0.00,,2013-03-07 19:43:00,
2013-03-07 19:52:00,26.0,18.0,-100.00,SE,145,12.0,18.0,69,0.00,,,0.00,,2013-03-07 19:52:00,
2013-03-07 20:02:00,26.0,18.0,-100.00,SSE,150,11.0,16.0,68,0.00,,,0.00,,2013-03-07 20:02:00,
2013-03-07 20:13:00,27.0,18.0,-100.00,SE,135,9.0,13.0,68,0.00,,,0.00,,2013-03-07 20:13:00,
2013-03-07 20:22:00,26.0,18.0,-100.00,SE,135,13.0,17.0,66,0.00,,,0.00,,2013-03-07 20:22:00,
2013-03-07 20:33:00,27.0,18.0,-100.00,SE,140,11.0,15.0,66,0.00,,,0.00,,2013-03-07 20:33:00,
2013-03-07 20:42:00,27.0,16.0,-100.00,SE,140,12.0,21.0,65,0.00,,,0.00,,2013-03-07 20:42:00,
2013-03-07 20:53:00,27.0,16.0,-100.00,SE,135,11.0,18.0,65,0.00,,,0.00,,2013-03-07 20:53:00,
2013-03-07 21:02:00,27.0,18.0,-100.00,SSE,150,8.0,13.0,65,0.00,,,0.00,,2013-03-07 21:02:00,
2013-03-07 21:12:00,27.0,18.0,-100.00,ESE,115,10.0,15.0,64,0.00,,,0.00,,2013-03-07 21:12:00,
2013-03-07 21:22:00,28.0,18.0,-100.00,SE,130,9.0,15.0,64,0.00,,,0.00,,2013-03-07 21:22:00,
2013-03-07 21:32:00,28.0,18.0,-100.00,SE,140,11.0,16.0,64,0.00,,,0.00,,2013-03-07 21:32:00,
2013-03-07 21:42:00,28.0,18.0,-100.00,SE,125,12.0,17.0,64,0.00,,,0.00,,2013-03-07 21:42:00,
2013-03-07 21:52:00,28.0,18.0,-100.00,SE,135,12.0,16.0,64,0.00,,,0.00,,2013-03-07 21:52:00,
2013-03-07 22:01:00,28.0,18.0,-100.00,SE,140,11.0,19.0,63,0.00,,,0.00,,2013-03-07 22:01:00,
2013-03-07 22:12:00,28.0,18.0,-100.00,SE,140,9.0,17.0,63,0.00,,,0.00,,2013-03-07 22:12:00,
2013-03-07 22:22:00,29.0,18.0,-100.00,SE,140,11.0,19.0,62,0.00,,,0.00,,2013-03-07 22:22:00,
2013-03-07 22:32:00,29.0,18.0,-100.00,ESE,120,16.0,21.0,61,0.00,,,0.00,,2013-03-07 22:32:00,
2013-03-07 22:42:00,29.0,18.0,-100.00,SE,125,11.0,17.0,61,0.00,,,0.00,,2013-03-07 22:42:00,
2013-03-07 22:52:00,29.0,18.0,-100.00,ESE,120,9.0,17.0,61,0.00,,,0.00,,2013-03-07 22:52:00,
2013-03-07 23:02:00,29.0,18.0,-100.00,SE,135,11.0,18.0,60,0.00,,,0.00,,2013-03-07 23:02:00,
2013-03-07 23:12:00,29.0,18.0,-100.00,SE,125,11.0,16.0,60,0.00,,,0.00,,2013-03-07 23:12:00,
2013-03-07 23:22:00,29.0,16.0,-100.00,ESE,115,11.0,17.0,60,0.00,,,0.00,,2013-03-07 23:22:00,
2013-03-07 23:33:00,28.0,16.0,-100.00,SE,130,12.0,19.0,60,0.00,,,0.00,,2013-03-07 23:33:00,
2013-03-07 23:42:00,28.0,16.0,-100.00,ESE,120,11.0,16.0,60,0.00,,,0.00,,2013-03-07 23:42:00,
2013-03-07 23:52:00,28.0,16.0,-100.00,ESE,120,11.0,19.0,60,0.00,,,0.00,,2013-03-07 23:52:00,